VIE weather

Vienna International Airport
Vienna, Vienna, Austria

Public forecast

Using degrees Celsius for public forecast. Weather courtesy of forecast.io.

METAR (pilot weather report)

Retrieved 2018/10/17 02:50 UTC (12 minutes ago):

LOWW 170250Z 11007KT CAVOK 11/08 Q1020 NOSIG

TAF (pilot weather forecast)

Retrieved 2018/10/17 03:55 UTC (0 seconds ago):

TAF LOWW 170215Z 1703/1809 14007KT CAVOK TX19/1712Z TN10/1805Z TEMPO 1708/1716 -SHRA SCT040 FEW050TCU BKN090 TEMPO 1804/1806 VRB02KT BECMG 1806/1808 33007KT